Terminal Aerodrome Forecast
Issued by NWS Riverton, WY

Home | Current Version | Previous Version | Text Only | Print | Product List | Glossary On
Versions: 1 2 3 4 5 6 7 8 9 10 11 12
000
FTUS45 KRIW 270500
TAFRIW
TAF
KRIW 270528Z 2706/2806 36007KT P6SM BKN100
     FM271600 VRB05KT P6SM VCSH SCT050 BKN070
     FM272200 09006KT P6SM VCTS SCT050CB BKN070CB
     FM280100 29006KT P6SM VCSH SCT060 BKN080
     FM280400 30006KT P6SM BKN100=

USA.gov is the U.S. government's official web portal to all federal, state and local government web resources and services.